createdAt,value
2022-08-17T00:00:34.603Z,8.20
2022-08-17T00:03:42.949Z,8.23
2022-08-17T00:06:31.455Z,9.23
2022-08-17T00:09:19.199Z,9.20
2022-08-17T00:12:42.217Z,7.70
2022-08-17T00:15:13.337Z,7.20
2022-08-17T00:17:59.590Z,7.47
2022-08-17T00:20:45.733Z,7.30
2022-08-17T00:23:31.819Z,7.90
2022-08-17T00:26:43.644Z,7.57
2022-08-17T00:29:24.988Z,8.17
2022-08-17T00:33:12.121Z,7.73
2022-08-17T00:35:18.683Z,8.23
2022-08-17T00:38:06.940Z,10.57
2022-08-17T00:40:55.923Z,7.73
2022-08-17T00:43:59.258Z,8.13
2022-08-17T00:46:45.613Z,8.03
2022-08-17T00:49:31.710Z,8.13
2022-08-17T00:52:21.787Z,7.90
2022-08-17T00:55:08.115Z,8.93
2022-08-17T00:57:55.989Z,9.20
2022-08-17T01:00:43.845Z,8.20
2022-08-17T01:03:31.218Z,10.27
2022-08-17T01:06:17.222Z,7.27
2022-08-17T01:09:03.871Z,8.90
2022-08-17T01:11:53.486Z,8.30
2022-08-17T01:14:40.255Z,9.53
2022-08-17T01:17:27.742Z,7.73
2022-08-17T01:20:13.783Z,8.13
2022-08-17T01:23:00.491Z,10.60
2022-08-17T01:25:46.864Z,8.50
2022-08-17T01:28:52.938Z,7.63
2022-08-17T01:31:49.454Z,7.63
2022-08-17T01:34:42.395Z,8.00
2022-08-17T01:37:32.631Z,7.90
2022-08-17T01:40:18.583Z,8.03
2022-08-17T01:43:07.891Z,9.67
2022-08-17T01:46:03.907Z,7.80
2022-08-17T01:48:51.478Z,8.93
2022-08-17T01:51:38.251Z,7.50
2022-08-17T01:54:24.518Z,10.27
2022-08-17T01:57:10.520Z,9.40
2022-08-17T01:59:56.415Z,7.23
2022-08-17T02:02:45.578Z,8.03
2022-08-17T02:05:31.792Z,7.93
2022-08-17T02:08:20.396Z,8.47
2022-08-17T02:11:11.398Z,7.77
2022-08-17T02:14:03.092Z,6.90
2022-08-17T02:16:49.503Z,8.10
2022-08-17T02:19:35.502Z,7.30
2022-08-17T02:22:21.490Z,7.00
2022-08-17T02:25:09.325Z,7.60
2022-08-17T02:27:55.554Z,7.90
2022-08-17T02:30:59.915Z,7.90
2022-08-17T02:33:47.860Z,8.03
2022-08-17T02:36:49.485Z,7.83
2022-08-17T02:39:35.439Z,10.23
2022-08-17T02:42:25.566Z,9.00
2022-08-17T02:45:15.782Z,7.97
2022-08-17T02:48:01.237Z,8.30
2022-08-17T02:50:47.261Z,7.50
2022-08-17T02:53:35.857Z,7.90
2022-08-17T02:56:22.024Z,7.87
2022-08-17T02:59:07.658Z,7.70
2022-08-17T03:01:53.540Z,8.93
2022-08-17T03:04:39.380Z,8.53
2022-08-17T03:07:25.260Z,8.77
2022-08-17T03:10:11.566Z,9.00
2022-08-17T03:12:57.497Z,7.80
2022-08-17T03:15:45.082Z,8.07
2022-08-17T03:18:31.049Z,8.40
2022-08-17T03:21:16.936Z,7.53
2022-08-17T03:24:08.795Z,9.47
2022-08-17T03:26:54.627Z,7.80
2022-08-17T03:29:41.406Z,8.93
2022-08-17T03:32:26.919Z,7.50
2022-08-17T03:35:13.781Z,7.80
2022-08-17T03:38:02.172Z,7.33
2022-08-17T03:40:57.225Z,7.47
2022-08-17T03:43:45.049Z,8.33
2022-08-17T03:46:49.294Z,8.80
2022-08-17T03:49:54.051Z,8.10
2022-08-17T03:53:03.294Z,7.73
2022-08-17T03:56:07.700Z,7.90
2022-08-17T03:58:53.377Z,9.40
2022-08-17T04:01:39.255Z,7.70
2022-08-17T04:04:27.778Z,8.80
2022-08-17T04:07:13.878Z,8.67
2022-08-17T04:09:59.620Z,7.43
2022-08-17T04:12:48.509Z,7.03
2022-08-17T04:15:34.422Z,7.20
2022-08-17T04:18:20.342Z,7.83
2022-08-17T04:21:08.982Z,8.23
2022-08-17T04:23:54.854Z,6.97
2022-08-17T04:26:53.981Z,7.30
2022-08-17T04:29:55.031Z,7.53
2022-08-17T04:33:04.320Z,11.50
2022-08-17T04:36:05.877Z,8.40
2022-08-17T04:38:51.735Z,6.97
2022-08-17T04:41:56.549Z,8.80
2022-08-17T04:44:42.293Z,6.73
2022-08-17T04:47:28.163Z,7.30
2022-08-17T04:50:13.664Z,6.97
2022-08-17T04:52:59.536Z,7.70
2022-08-17T04:55:46.157Z,7.00
2022-08-17T04:58:31.934Z,7.80
2022-08-17T05:01:23.439Z,7.50
2022-08-17T05:04:26.892Z,11.13
2022-08-17T05:07:23.110Z,7.90
2022-08-17T05:10:09.808Z,7.63
2022-08-17T05:13:03.822Z,7.90
2022-08-17T05:15:50.458Z,10.60
2022-08-17T05:18:37.154Z,8.17
2022-08-17T05:21:23.301Z,10.00
2022-08-17T05:24:38.169Z,9.40
2022-08-17T05:27:19.136Z,9.10
2022-08-17T05:30:05.252Z,8.03
2022-08-17T05:32:52.290Z,10.47
2022-08-17T05:35:40.221Z,7.50
2022-08-17T05:38:26.782Z,8.50
2022-08-17T05:41:12.781Z,8.53
2022-08-17T05:43:58.419Z,8.23
2022-08-17T05:46:46.186Z,8.77
2022-08-17T05:49:31.655Z,7.73
2022-08-17T05:52:21.676Z,10.80
2022-08-17T05:55:07.277Z,7.63
2022-08-17T05:57:59.925Z,9.97
2022-08-17T06:00:50.381Z,10.73
2022-08-17T06:03:50.115Z,8.00
2022-08-17T06:06:44.795Z,9.53
2022-08-17T06:09:47.824Z,8.30
2022-08-17T06:12:48.899Z,14.77
2022-08-17T06:15:57.003Z,10.13
2022-08-17T06:18:46.795Z,8.00
2022-08-17T06:21:38.734Z,8.37
2022-08-17T06:24:25.559Z,7.40
2022-08-17T06:27:30.401Z,8.90
2022-08-17T06:30:21.947Z,8.47
2022-08-17T06:33:14.215Z,8.17
2022-08-17T06:36:18.548Z,7.93
2022-08-17T06:39:23.146Z,9.07
2022-08-17T06:42:09.477Z,8.63
2022-08-17T06:45:17.053Z,7.80
2022-08-17T06:48:07.792Z,8.10
2022-08-17T06:50:55.296Z,8.60
2022-08-17T06:53:48.212Z,8.87
2022-08-17T06:56:54.473Z,8.30
2022-08-17T06:59:54.435Z,11.00
2022-08-17T07:02:55.481Z,10.63
2022-08-17T07:05:44.738Z,16.20
2022-08-17T07:08:50.859Z,10.53
2022-08-17T07:11:42.574Z,10.10
2022-08-17T07:14:36.427Z,9.80
2022-08-17T07:17:46.497Z,9.37
2022-08-17T07:20:31.180Z,9.70
2022-08-17T07:23:21.818Z,10.80
2022-08-17T07:26:08.532Z,9.40
2022-08-17T07:28:56.248Z,10.00
2022-08-17T07:31:41.987Z,12.47
2022-08-17T07:34:29.134Z,14.20
2022-08-17T07:37:19.440Z,12.63
2022-08-17T07:40:16.971Z,16.27
2022-08-17T07:43:13.077Z,12.67
2022-08-17T07:47:00.106Z,11.43
2022-08-17T07:49:46.313Z,11.30
2022-08-17T07:52:48.518Z,9.83
2022-08-17T07:55:41.374Z,10.00
2022-08-17T07:58:27.077Z,10.77
2022-08-17T08:01:18.160Z,11.20
2022-08-17T08:04:20.091Z,9.93
2022-08-17T08:07:20.495Z,13.40
2022-08-17T08:10:09.716Z,11.90
2022-08-17T08:13:07.963Z,9.30
2022-08-17T08:16:17.407Z,14.77
2022-08-17T08:19:03.133Z,17.20
2022-08-17T08:21:58.996Z,10.43
2022-08-17T08:25:03.555Z,13.37
2022-08-17T08:27:52.523Z,13.50
2022-08-17T08:30:43.928Z,12.97
2022-08-17T08:33:41.523Z,13.60
2022-08-17T08:37:14.545Z,10.43
2022-08-17T08:39:38.878Z,12.93
2022-08-17T08:42:32.794Z,12.07
2022-08-17T08:45:38.245Z,10.63
2022-08-17T08:48:56.225Z,9.93
2022-08-17T08:51:47.000Z,13.40
2022-08-17T08:54:56.134Z,10.10
2022-08-17T08:57:46.554Z,9.70
2022-08-17T09:00:35.938Z,13.03
2022-08-17T09:03:51.490Z,11.47
2022-08-17T09:06:41.343Z,11.60
2022-08-17T09:09:43.446Z,10.60
2022-08-17T09:12:42.208Z,10.23
2022-08-17T09:15:32.035Z,10.33
2022-08-17T09:19:00.417Z,11.63
2022-08-17T09:21:47.956Z,10.73
2022-08-17T09:24:44.613Z,11.10
2022-08-17T09:27:47.490Z,11.23
2022-08-17T09:30:45.398Z,10.67
2022-08-17T09:33:34.444Z,10.27
2022-08-17T09:36:30.997Z,10.50
2022-08-17T09:39:21.080Z,14.83
2022-08-17T09:42:25.652Z,10.63
2022-08-17T09:45:24.439Z,13.30
2022-08-17T09:48:20.709Z,13.90
2022-08-17T09:51:14.458Z,11.47
2022-08-17T09:54:20.922Z,10.93
2022-08-17T09:57:29.230Z,10.80
2022-08-17T10:00:19.929Z,13.27
2022-08-17T10:03:25.241Z,11.67
2022-08-17T10:06:21.752Z,10.20
2022-08-17T10:09:31.422Z,12.87
2022-08-17T10:12:30.257Z,11.80
2022-08-17T10:15:25.315Z,11.60
2022-08-17T10:18:11.093Z,11.63
2022-08-17T10:21:20.642Z,12.87
2022-08-17T10:24:28.090Z,12.23
2022-08-17T10:27:16.764Z,12.33
2022-08-17T10:30:04.814Z,11.97
2022-08-17T10:32:54.971Z,11.70
2022-08-17T10:35:50.348Z,12.00
2022-08-17T10:38:41.858Z,12.40
2022-08-17T10:41:29.720Z,12.60
2022-08-17T10:44:38.182Z,11.23
2022-08-17T10:47:55.594Z,13.07
2022-08-17T10:50:46.142Z,11.13
2022-08-17T10:53:36.876Z,11.83
2022-08-17T10:56:39.560Z,12.20
2022-08-17T10:59:47.025Z,12.80
2022-08-17T11:02:50.511Z,12.03
2022-08-17T11:05:53.830Z,11.53
2022-08-17T11:08:54.119Z,12.67
2022-08-17T11:11:59.914Z,11.33
2022-08-17T11:14:53.960Z,13.27
2022-08-17T11:18:07.193Z,13.40
2022-08-17T11:20:53.848Z,12.97
2022-08-17T11:23:49.016Z,13.13
2022-08-17T11:26:37.229Z,11.73
2022-08-17T11:29:24.951Z,11.60
2022-08-17T11:32:13.411Z,12.80
2022-08-17T11:35:12.252Z,12.80
2022-08-17T11:38:24.946Z,10.90
2022-08-17T11:41:35.704Z,12.07
2022-08-17T11:44:26.642Z,12.70
2022-08-17T11:47:37.760Z,10.50
2022-08-17T11:50:49.216Z,10.70
2022-08-17T11:53:38.085Z,11.47
2022-08-17T11:56:32.132Z,10.70
2022-08-17T11:59:33.237Z,10.00
2022-08-17T12:02:31.727Z,11.33
2022-08-17T12:05:20.952Z,9.90
2022-08-17T12:08:08.734Z,9.87
2022-08-17T12:11:56.306Z,12.10
2022-08-17T12:15:05.666Z,8.93
2022-08-17T12:17:42.072Z,9.23
2022-08-17T12:20:28.526Z,10.43
2022-08-17T12:23:35.136Z,9.47
2022-08-17T12:26:23.851Z,10.10
2022-08-17T12:29:18.137Z,7.97
2022-08-17T12:32:21.438Z,8.80
2022-08-17T12:35:18.905Z,11.70
2022-08-17T12:38:26.817Z,9.20
2022-08-17T12:41:27.046Z,9.10
2022-08-17T12:44:28.957Z,8.80
2022-08-17T12:47:21.883Z,7.43
2022-08-17T12:50:28.845Z,7.43
2022-08-17T12:53:15.993Z,7.53
2022-08-17T12:56:02.445Z,7.67
2022-08-17T12:58:53.463Z,8.00
2022-08-17T13:01:42.990Z,7.80
2022-08-17T13:04:29.502Z,8.20
2022-08-17T13:07:27.706Z,7.43
2022-08-17T13:10:17.088Z,8.43
2022-08-17T13:13:05.264Z,7.17
2022-08-17T13:15:55.942Z,7.50
2022-08-17T13:18:46.777Z,7.80
2022-08-17T13:21:33.538Z,7.13
2022-08-17T13:24:21.731Z,7.27
2022-08-17T13:27:08.799Z,10.17
2022-08-17T13:29:59.577Z,8.03
2022-08-17T13:32:49.004Z,7.50
2022-08-17T13:35:52.498Z,7.90
2022-08-17T13:38:47.129Z,9.37
2022-08-17T13:41:35.674Z,8.00
2022-08-17T13:44:39.288Z,7.30
2022-08-17T13:47:25.388Z,7.70
2022-08-17T13:50:22.595Z,7.97
2022-08-17T13:53:19.834Z,7.50
2022-08-17T13:56:38.464Z,7.20
2022-08-17T13:59:53.421Z,7.00
2022-08-17T14:02:35.535Z,7.33
2022-08-17T14:05:21.907Z,7.83
2022-08-17T14:08:08.966Z,7.37
2022-08-17T14:10:58.070Z,7.97
2022-08-17T14:13:43.736Z,7.60
2022-08-17T14:16:29.785Z,7.23
2022-08-17T14:19:15.887Z,8.60
2022-08-17T14:22:01.838Z,6.83
2022-08-17T14:24:47.769Z,6.37
2022-08-17T14:27:34.051Z,7.67
2022-08-17T14:30:35.405Z,6.77
2022-08-17T14:33:24.978Z,8.07
2022-08-17T14:36:10.616Z,7.87
2022-08-17T14:38:56.418Z,7.30
2022-08-17T14:41:42.440Z,6.90
2022-08-17T14:44:28.049Z,7.03
2022-08-17T14:47:17.253Z,6.90
2022-08-17T14:50:05.640Z,6.63
2022-08-17T14:52:55.952Z,7.10
2022-08-17T14:55:45.686Z,6.97
2022-08-17T14:58:32.983Z,7.43
2022-08-17T15:01:20.126Z,6.50
2022-08-17T15:04:06.151Z,7.30
2022-08-17T15:06:52.494Z,7.67
2022-08-17T15:09:37.959Z,6.97
2022-08-17T15:12:28.639Z,8.27
2022-08-17T15:15:18.205Z,7.47
2022-08-17T15:18:04.376Z,9.40
2022-08-17T15:20:50.568Z,6.80
2022-08-17T15:23:36.723Z,7.03
2022-08-17T15:26:26.237Z,6.97
2022-08-17T15:29:12.269Z,6.83
2022-08-17T15:32:00.787Z,7.47
2022-08-17T15:34:47.523Z,7.90
2022-08-17T15:37:33.521Z,7.20
2022-08-17T15:40:19.720Z,6.70
2022-08-17T15:43:06.382Z,8.67
2022-08-17T15:45:59.856Z,7.33
2022-08-17T15:48:47.483Z,7.50
2022-08-17T15:51:34.597Z,8.10
2022-08-17T15:54:22.696Z,8.40
2022-08-17T15:57:09.224Z,6.70
2022-08-17T15:59:59.053Z,6.90
2022-08-17T16:03:45.923Z,6.80
2022-08-17T16:05:51.000Z,7.07
2022-08-17T16:08:37.578Z,7.57
2022-08-17T16:11:23.533Z,7.50
2022-08-17T16:14:09.270Z,6.87
2022-08-17T16:16:59.384Z,7.20
2022-08-17T16:19:45.706Z,7.23
2022-08-17T16:22:39.260Z,6.50
2022-08-17T16:25:38.433Z,7.77
2022-08-17T16:28:36.438Z,7.10
2022-08-17T16:31:23.075Z,7.47
2022-08-17T16:34:17.857Z,9.20
2022-08-17T16:37:04.709Z,7.33
2022-08-17T16:39:51.915Z,7.50
2022-08-17T16:42:39.492Z,6.80
2022-08-17T16:45:27.505Z,7.93
2022-08-17T16:48:15.519Z,8.57
2022-08-17T16:51:04.579Z,7.33
2022-08-17T16:53:57.758Z,7.20
2022-08-17T16:56:44.926Z,8.17
2022-08-17T16:59:40.812Z,7.03
2022-08-17T17:02:36.186Z,7.60
2022-08-17T17:05:36.836Z,7.10
2022-08-17T17:08:26.844Z,8.10
2022-08-17T17:11:19.095Z,7.30
2022-08-17T17:14:07.981Z,8.00
2022-08-17T17:17:13.389Z,9.20
2022-08-17T17:20:20.690Z,7.97
2022-08-17T17:23:11.260Z,7.73
2022-08-17T17:26:15.752Z,7.40
2022-08-17T17:29:20.676Z,9.07
2022-08-17T17:32:13.587Z,10.30
2022-08-17T17:35:06.128Z,8.10
2022-08-17T17:37:53.829Z,8.20
2022-08-17T17:40:43.408Z,7.03
2022-08-17T17:43:38.919Z,7.83
2022-08-17T17:46:29.865Z,7.30
2022-08-17T17:49:17.194Z,7.23
2022-08-17T17:52:22.076Z,7.30
2022-08-17T17:55:30.929Z,7.30
2022-08-17T17:58:28.257Z,7.30
2022-08-17T18:01:19.962Z,7.53
2022-08-17T18:04:17.626Z,7.83
2022-08-17T18:07:17.144Z,6.80
2022-08-17T18:10:30.192Z,7.73
2022-08-17T18:13:32.046Z,7.10
2022-08-17T18:16:18.570Z,8.00
2022-08-17T18:19:04.170Z,8.07
2022-08-17T18:22:07.028Z,8.27
2022-08-17T18:24:58.066Z,7.30
2022-08-17T18:27:51.363Z,8.73
2022-08-17T18:30:37.432Z,8.00
2022-08-17T18:33:26.724Z,8.10
2022-08-17T18:36:12.549Z,8.23
2022-08-17T18:39:09.840Z,7.87
2022-08-17T18:41:57.101Z,8.93
2022-08-17T18:44:44.280Z,9.30
2022-08-17T18:47:30.539Z,8.50
2022-08-17T18:50:21.783Z,9.70
2022-08-17T18:53:19.993Z,10.17
2022-08-17T18:56:30.712Z,8.80
2022-08-17T18:59:23.135Z,9.13
2022-08-17T19:02:23.264Z,11.47
2022-08-17T19:05:39.599Z,9.67
2022-08-17T19:08:36.639Z,16.20
2022-08-17T19:11:22.952Z,11.30
2022-08-17T19:14:16.629Z,11.13
2022-08-17T19:17:20.260Z,12.50
2022-08-17T19:20:15.785Z,11.37
2022-08-17T19:23:31.433Z,9.47
2022-08-17T19:26:51.160Z,9.93
2022-08-17T19:29:37.678Z,10.13
2022-08-17T19:32:26.145Z,10.70
2022-08-17T19:35:17.197Z,11.33
2022-08-17T19:38:12.921Z,10.57
2022-08-17T19:41:19.767Z,10.83
2022-08-17T19:44:22.498Z,11.60
2022-08-17T19:47:10.365Z,10.90
2022-08-17T19:50:14.158Z,9.83
2022-08-17T19:53:42.015Z,10.80
2022-08-17T20:00:26.925Z,12.67
2022-08-17T20:03:16.611Z,14.73
2022-08-17T20:06:13.741Z,20.27
2022-08-17T20:09:00.451Z,15.77
2022-08-17T20:11:48.484Z,14.73
2022-08-17T20:14:41.901Z,14.70
2022-08-17T20:17:43.997Z,13.20
2022-08-17T20:20:47.390Z,14.97
2022-08-17T20:23:36.453Z,12.30
2022-08-17T20:26:39.626Z,12.30
2022-08-17T20:29:37.318Z,19.17
2022-08-17T20:32:30.877Z,14.87
2022-08-17T20:35:24.993Z,15.00
2022-08-17T20:38:12.697Z,14.87
2022-08-17T20:41:02.975Z,12.07
2022-08-17T20:43:51.853Z,12.77
2022-08-17T20:46:37.802Z,13.03
2022-08-17T20:49:27.397Z,13.53
2022-08-17T20:52:15.439Z,12.90
2022-08-17T20:55:02.261Z,13.27
2022-08-17T20:57:48.805Z,14.87
2022-08-17T21:00:42.007Z,19.50
2022-08-17T21:03:27.907Z,14.23
2022-08-17T21:06:33.632Z,14.57
2022-08-17T21:09:27.612Z,13.07
2022-08-17T21:12:33.352Z,13.53
2022-08-17T21:15:34.832Z,11.53
2022-08-17T21:18:26.465Z,12.27
2022-08-17T21:21:18.103Z,10.63
2022-08-17T21:24:03.903Z,9.50
2022-08-17T21:27:00.445Z,11.27
2022-08-17T21:30:06.505Z,10.80
2022-08-17T21:33:10.965Z,10.40
2022-08-17T21:35:59.888Z,10.50
2022-08-17T21:38:57.022Z,10.53
2022-08-17T21:41:52.708Z,10.60
2022-08-17T21:44:42.091Z,11.00
2022-08-17T21:47:29.904Z,10.90
2022-08-17T21:50:21.399Z,11.80
2022-08-17T21:53:08.706Z,10.57
2022-08-17T21:55:54.958Z,10.47
2022-08-17T21:58:48.293Z,10.00
2022-08-17T22:01:35.222Z,11.40
2022-08-17T22:04:25.445Z,11.37
2022-08-17T22:07:12.952Z,11.27
2022-08-17T22:09:59.122Z,14.83
2022-08-17T22:13:01.830Z,11.33
2022-08-17T22:16:28.380Z,10.47
2022-08-17T22:19:12.714Z,11.83
2022-08-17T22:22:06.365Z,11.20
2022-08-17T22:24:57.257Z,11.20
2022-08-17T22:27:55.866Z,11.37
2022-08-17T22:31:02.313Z,10.80
2022-08-17T22:34:07.577Z,11.67
2022-08-17T22:37:20.098Z,11.27
2022-08-17T22:40:24.505Z,11.20
2022-08-17T22:43:12.086Z,12.47
2022-08-17T22:45:59.736Z,11.40
2022-08-17T22:48:48.761Z,10.97
2022-08-17T22:51:35.101Z,10.53
2022-08-17T22:54:39.650Z,12.07
2022-08-17T22:57:45.149Z,12.10
2022-08-17T23:00:42.097Z,11.10
2022-08-17T23:03:28.335Z,11.10
2022-08-17T23:06:14.024Z,11.97
2022-08-17T23:09:02.776Z,11.10
2022-08-17T23:11:51.422Z,11.20
2022-08-17T23:14:39.323Z,10.87
2022-08-17T23:17:25.446Z,10.93
2022-08-17T23:20:13.259Z,11.17
2022-08-17T23:22:59.995Z,10.63
2022-08-17T23:25:46.556Z,10.50
2022-08-17T23:28:37.450Z,13.17
2022-08-17T23:31:26.026Z,10.77
2022-08-17T23:34:13.759Z,10.00
2022-08-17T23:37:02.704Z,11.30
2022-08-17T23:39:48.569Z,10.30
2022-08-17T23:42:34.971Z,12.17
2022-08-17T23:45:21.090Z,11.57
2022-08-17T23:48:07.979Z,11.83
2022-08-17T23:50:55.335Z,10.70
2022-08-17T23:53:47.587Z,10.80
2022-08-17T23:56:41.488Z,11.80
2022-08-17T23:59:27.766Z,11.30
